createdAt,value
2022-10-29T00:00:15.846Z,97914.00
2022-10-29T00:01:17.618Z,97912.91
2022-10-29T00:02:19.212Z,97911.00
2022-10-29T00:03:21.550Z,97914.94
2022-10-29T00:04:23.134Z,97915.59
2022-10-29T00:05:24.742Z,97909.09
2022-10-29T00:06:26.328Z,97915.72
2022-10-29T00:07:28.093Z,97906.75
2022-10-29T00:08:31.877Z,97910.84
2022-10-29T00:09:33.434Z,97908.78
2022-10-29T00:10:34.947Z,97914.50
2022-10-29T00:11:36.771Z,97913.25
2022-10-29T00:12:38.355Z,97921.16
2022-10-29T00:13:40.960Z,97909.25
2022-10-29T00:14:42.481Z,97908.97
2022-10-29T00:15:44.031Z,97915.94
2022-10-29T00:16:45.548Z,97903.56
2022-10-29T00:17:47.098Z,97905.81
2022-10-29T00:18:48.815Z,97912.75
2022-10-29T00:19:50.334Z,97915.94
2022-10-29T00:21:00.381Z,97918.31
2022-10-29T00:22:01.880Z,97917.19
2022-10-29T00:23:03.520Z,97911.81
2022-10-29T00:24:05.566Z,97904.53
2022-10-29T00:25:07.399Z,97902.00
2022-10-29T00:26:09.036Z,97899.00
2022-10-29T00:27:10.709Z,97897.72
2022-10-29T00:28:12.292Z,97902.31
2022-10-29T00:29:13.931Z,97896.94
2022-10-29T00:30:15.743Z,97898.53
2022-10-29T00:31:19.178Z,97900.13
2022-10-29T00:32:20.806Z,97898.53
2022-10-29T00:33:22.591Z,97902.31
2022-10-29T00:34:24.243Z,97899.94
2022-10-29T00:35:26.239Z,97901.50
2022-10-29T00:36:30.089Z,97897.22
2022-10-29T00:37:31.649Z,97892.34
2022-10-29T00:38:34.816Z,97896.91
2022-10-29T00:39:36.352Z,97890.06
2022-10-29T00:40:38.593Z,97897.16
2022-10-29T00:41:40.225Z,97897.00
2022-10-29T00:42:41.731Z,97900.38
2022-10-29T00:44:14.357Z,97899.28
2022-10-29T00:45:20.321Z,97894.28
2022-10-29T00:46:31.541Z,97895.34
2022-10-29T00:47:36.865Z,97886.03
2022-10-29T00:48:45.687Z,97881.56
2022-10-29T00:49:51.146Z,97888.63
2022-10-29T00:50:54.085Z,97888.13
2022-10-29T00:51:57.155Z,97885.44
2022-10-29T00:52:59.140Z,97883.56
2022-10-29T00:54:05.026Z,97881.41
2022-10-29T00:55:08.994Z,97883.50
2022-10-29T00:56:12.058Z,97881.13
2022-10-29T00:57:28.175Z,97875.63
2022-10-29T00:58:30.944Z,97881.19
2022-10-29T00:59:32.544Z,97879.13
2022-10-29T01:00:34.056Z,97874.72
2022-10-29T01:01:36.820Z,97877.66
2022-10-29T01:02:38.843Z,97877.50
2022-10-29T01:03:40.648Z,97865.78
2022-10-29T01:04:43.228Z,97869.25
2022-10-29T01:05:45.790Z,97872.09
2022-10-29T01:06:48.177Z,97877.47
2022-10-29T01:07:49.738Z,97875.69
2022-10-29T01:08:51.235Z,97871.59
2022-10-29T01:09:52.777Z,97869.25
2022-10-29T01:11:00.207Z,97878.13
2022-10-29T01:12:32.261Z,97877.50
2022-10-29T01:13:45.739Z,97874.06
2022-10-29T01:15:18.839Z,97878.66
2022-10-29T01:16:40.992Z,97877.88
2022-10-29T01:17:54.982Z,97872.69
2022-10-29T01:19:21.630Z,97871.38
2022-10-29T01:20:34.979Z,97877.84
2022-10-29T01:21:47.115Z,97867.03
2022-10-29T01:23:19.239Z,97864.78
2022-10-29T01:24:54.106Z,97868.63
2022-10-29T01:25:58.681Z,97873.91
2022-10-29T01:27:16.560Z,97866.88
2022-10-29T01:28:46.091Z,97866.94
2022-10-29T01:30:09.602Z,97873.38
2022-10-29T01:31:33.759Z,97867.50
2022-10-29T01:33:00.774Z,97872.56
2022-10-29T01:34:22.813Z,97874.16
2022-10-29T01:35:57.426Z,97867.91
2022-10-29T01:37:20.246Z,97869.59
2022-10-29T01:38:36.047Z,97866.41
2022-10-29T01:39:44.572Z,97867.50
2022-10-29T01:41:05.625Z,97858.88
2022-10-29T01:42:13.459Z,97866.31
2022-10-29T01:43:25.960Z,97863.53
2022-10-29T01:44:56.554Z,97865.91
2022-10-29T01:46:04.696Z,97861.00
2022-10-29T01:47:14.205Z,97860.44
2022-10-29T01:48:19.515Z,97855.13
2022-10-29T01:49:36.799Z,97859.78
2022-10-29T01:50:42.295Z,97852.63
2022-10-29T01:51:45.739Z,97859.91
2022-10-29T01:52:49.425Z,97856.53
2022-10-29T01:53:52.007Z,97856.88
2022-10-29T01:54:53.505Z,97857.22
2022-10-29T01:55:55.006Z,97855.50
2022-10-29T01:56:58.190Z,97858.06
2022-10-29T01:57:59.861Z,97855.25
2022-10-29T01:59:04.602Z,97860.50
2022-10-29T02:00:12.802Z,97855.13
2022-10-29T02:01:34.864Z,97861.44
2022-10-29T02:02:54.043Z,97857.31
2022-10-29T02:04:13.578Z,97856.59
2022-10-29T02:05:29.008Z,97857.66
2022-10-29T02:06:58.738Z,97860.28
2022-10-29T02:08:32.981Z,97857.50
2022-10-29T02:09:55.026Z,97860.03
2022-10-29T02:11:07.459Z,97857.13
2022-10-29T02:12:29.728Z,97858.56
2022-10-29T02:13:37.116Z,97856.84
2022-10-29T02:14:46.261Z,97860.00
2022-10-29T02:15:55.782Z,97862.19
2022-10-29T02:16:59.050Z,97858.44
2022-10-29T02:18:02.649Z,97854.63
2022-10-29T02:19:05.695Z,97852.56
2022-10-29T02:20:10.402Z,97848.28
2022-10-29T02:21:16.624Z,97858.91
2022-10-29T02:22:18.194Z,97855.31
2022-10-29T02:23:19.849Z,97853.41
2022-10-29T02:24:21.338Z,97857.19
2022-10-29T02:25:23.532Z,97852.63
2022-10-29T02:26:25.197Z,97859.19
2022-10-29T02:27:26.766Z,97856.09
2022-10-29T02:28:28.276Z,97859.25
2022-10-29T02:29:29.782Z,97863.50
2022-10-29T02:30:31.322Z,97856.97
2022-10-29T02:31:32.930Z,97852.84
2022-10-29T02:32:34.447Z,97851.44
2022-10-29T02:33:36.167Z,97847.25
2022-10-29T02:34:37.660Z,97845.09
2022-10-29T02:35:39.150Z,97853.53
2022-10-29T02:36:40.889Z,97854.03
2022-10-29T02:37:42.470Z,97849.56
2022-10-29T02:38:43.963Z,97852.63
2022-10-29T02:39:45.479Z,97855.34
2022-10-29T02:40:47.000Z,97853.84
2022-10-29T02:41:48.561Z,97851.31
2022-10-29T02:42:50.071Z,97846.13
2022-10-29T02:43:51.640Z,97853.59
2022-10-29T02:44:53.202Z,97847.59
2022-10-29T02:46:14.390Z,97850.94
2022-10-29T02:47:16.009Z,97851.63
2022-10-29T02:48:17.513Z,97848.31
2022-10-29T02:49:19.024Z,97851.47
2022-10-29T02:50:20.535Z,97847.69
2022-10-29T02:51:22.113Z,97844.41
2022-10-29T02:52:23.897Z,97849.13
2022-10-29T02:53:25.406Z,97843.16
2022-10-29T02:54:26.942Z,97842.38
2022-10-29T02:55:28.453Z,97845.34
2022-10-29T02:56:29.958Z,97849.13
2022-10-29T02:57:31.554Z,97842.22
2022-10-29T02:58:33.583Z,97847.25
2022-10-29T02:59:35.107Z,97854.50
2022-10-29T03:00:36.610Z,97852.94
2022-10-29T03:01:38.227Z,97850.38
2022-10-29T03:02:40.117Z,97849.59
2022-10-29T03:03:41.865Z,97845.28
2022-10-29T03:04:44.774Z,97851.88
2022-10-29T03:05:49.016Z,97845.84
2022-10-29T03:06:50.851Z,97852.47
2022-10-29T03:07:52.481Z,97849.19
2022-10-29T03:08:53.979Z,97852.84
2022-10-29T03:09:55.506Z,97856.00
2022-10-29T03:10:57.070Z,97859.16
2022-10-29T03:11:58.622Z,97848.94
2022-10-29T03:13:00.301Z,97857.94
2022-10-29T03:14:01.844Z,97857.31
2022-10-29T03:15:03.580Z,97849.47
2022-10-29T03:16:05.559Z,97853.91
2022-10-29T03:17:07.090Z,97852.31
2022-10-29T03:18:08.624Z,97859.25
2022-10-29T03:19:10.158Z,97853.28
2022-10-29T03:20:11.830Z,97854.84
2022-10-29T03:21:13.449Z,97857.25
2022-10-29T03:22:15.091Z,97854.50
2022-10-29T03:23:16.702Z,97853.19
2022-10-29T03:24:18.250Z,97849.91
2022-10-29T03:25:19.758Z,97857.53
2022-10-29T03:26:21.312Z,97858.59
2022-10-29T03:27:22.852Z,97855.47
2022-10-29T03:28:27.895Z,97851.56
2022-10-29T03:29:29.480Z,97857.97
2022-10-29T03:30:31.047Z,97855.41
2022-10-29T03:31:32.673Z,97859.19
2022-10-29T03:32:34.185Z,97854.59
2022-10-29T03:33:36.185Z,97851.81
2022-10-29T03:34:37.700Z,97855.88
2022-10-29T03:35:39.480Z,97850.22
2022-10-29T03:36:41.056Z,97854.19
2022-10-29T03:37:42.850Z,97856.56
2022-10-29T03:38:44.359Z,97863.59
2022-10-29T03:39:45.841Z,97860.91
2022-10-29T03:40:47.344Z,97865.25
2022-10-29T03:41:48.820Z,97857.53
2022-10-29T03:42:50.327Z,97862.28
2022-10-29T03:43:51.937Z,97860.53
2022-10-29T03:44:53.505Z,97866.28
2022-10-29T03:45:57.074Z,97858.94
2022-10-29T03:46:58.588Z,97856.97
2022-10-29T03:48:00.137Z,97863.31
2022-10-29T03:49:01.704Z,97853.63
2022-10-29T03:50:04.036Z,97854.63
2022-10-29T03:51:06.966Z,97859.25
2022-10-29T03:52:08.739Z,97851.75
2022-10-29T03:53:11.293Z,97853.81
2022-10-29T03:54:12.824Z,97857.56
2022-10-29T03:55:14.343Z,97858.88
2022-10-29T03:56:16.023Z,97859.78
2022-10-29T03:57:17.539Z,97863.31
2022-10-29T03:58:19.452Z,97859.19
2022-10-29T03:59:20.994Z,97860.72
2022-10-29T04:00:22.514Z,97853.13
2022-10-29T04:01:24.155Z,97854.19
2022-10-29T04:02:26.008Z,97850.53
2022-10-29T04:03:29.633Z,97855.00
2022-10-29T04:04:31.178Z,97855.69
2022-10-29T04:05:32.666Z,97859.16
2022-10-29T04:06:34.167Z,97859.34
2022-10-29T04:07:35.685Z,97862.53
2022-10-29T04:08:37.723Z,97868.88
2022-10-29T04:09:39.321Z,97868.78
2022-10-29T04:10:45.643Z,97863.34
2022-10-29T04:11:47.327Z,97868.88
2022-10-29T04:12:48.881Z,97870.16
2022-10-29T04:13:53.579Z,97865.91
2022-10-29T04:14:55.185Z,97867.78
2022-10-29T04:15:56.714Z,97863.72
2022-10-29T04:16:58.993Z,97867.69
2022-10-29T04:18:00.493Z,97869.47
2022-10-29T04:19:02.383Z,97861.44
2022-10-29T04:20:10.006Z,97860.34
2022-10-29T04:29:32.197Z,97863.63
2022-10-29T04:30:33.736Z,97865.00
2022-10-29T04:31:35.435Z,97868.84
2022-10-29T04:32:39.867Z,97866.97
2022-10-29T04:33:41.406Z,97865.88
2022-10-29T04:34:42.936Z,97863.59
2022-10-29T04:35:44.505Z,97868.84
2022-10-29T04:36:46.051Z,97867.25
2022-10-29T04:37:47.574Z,97871.03
2022-10-29T04:38:50.334Z,97869.03
2022-10-29T04:39:51.839Z,97867.16
2022-10-29T04:40:53.382Z,97877.31
2022-10-29T04:41:54.863Z,97871.59
2022-10-29T04:42:56.677Z,97873.66
2022-10-29T04:43:58.385Z,97874.16
2022-10-29T04:44:59.903Z,97869.81
2022-10-29T04:46:01.518Z,97876.41
2022-10-29T04:47:03.085Z,97877.50
2022-10-29T04:48:06.101Z,97874.34
2022-10-29T04:49:07.633Z,97876.94
2022-10-29T04:50:09.771Z,97874.16
2022-10-29T04:51:25.383Z,97877.75
2022-10-29T04:52:26.948Z,97879.53
2022-10-29T04:53:28.451Z,97878.16
2022-10-29T04:54:29.971Z,97871.50
2022-10-29T04:55:31.865Z,97873.78
2022-10-29T04:56:33.387Z,97887.63
2022-10-29T04:57:34.941Z,97885.97
2022-10-29T04:58:36.459Z,97884.19
2022-10-29T04:59:37.976Z,97879.63
2022-10-29T05:00:39.663Z,97886.75
2022-10-29T05:01:41.217Z,97880.25
2022-10-29T05:02:42.739Z,97880.78
2022-10-29T05:03:44.312Z,97885.13
2022-10-29T05:04:45.806Z,97879.84
2022-10-29T05:05:47.344Z,97888.28
2022-10-29T05:06:48.887Z,97876.97
2022-10-29T05:07:57.738Z,97880.88
2022-10-29T05:08:59.480Z,97880.28
2022-10-29T05:10:00.995Z,97875.66
2022-10-29T05:11:04.660Z,97877.88
2022-10-29T05:12:07.478Z,97880.56
2022-10-29T05:13:11.653Z,97879.22
2022-10-29T05:14:13.206Z,97883.91
2022-10-29T05:15:14.840Z,97886.06
2022-10-29T05:16:16.396Z,97888.44
2022-10-29T05:17:17.935Z,97890.25
2022-10-29T05:18:19.446Z,97883.19
2022-10-29T05:19:20.959Z,97886.28
2022-10-29T05:20:23.396Z,97887.78
2022-10-29T05:21:24.882Z,97881.34
2022-10-29T05:22:26.439Z,97885.75
2022-10-29T05:23:27.955Z,97883.97
2022-10-29T05:24:29.482Z,97884.09
2022-10-29T05:25:32.793Z,97885.31
2022-10-29T05:26:34.334Z,97886.78
2022-10-29T05:27:35.929Z,97889.38
2022-10-29T05:28:37.449Z,97886.31
2022-10-29T05:29:38.989Z,97893.75
2022-10-29T05:30:41.724Z,97896.34
2022-10-29T05:31:43.401Z,97887.72
2022-10-29T05:32:45.017Z,97905.34
2022-10-29T05:33:47.024Z,97900.56
2022-10-29T05:34:49.619Z,97898.41
2022-10-29T05:35:51.660Z,97896.81
2022-10-29T05:36:53.635Z,97894.66
2022-10-29T05:37:56.192Z,97897.81
2022-10-29T05:38:57.824Z,97900.38
2022-10-29T05:39:59.343Z,97904.56
2022-10-29T05:41:01.189Z,97905.97
2022-10-29T05:42:02.751Z,97909.03
2022-10-29T05:43:04.591Z,97906.34
2022-10-29T05:44:06.171Z,97910.38
2022-10-29T05:45:08.373Z,97904.75
2022-10-29T05:46:09.930Z,97908.91
2022-10-29T05:47:11.448Z,97909.91
2022-10-29T05:48:13.517Z,97912.50
2022-10-29T05:49:15.135Z,97911.31
2022-10-29T05:50:16.740Z,97915.94
2022-10-29T05:51:19.335Z,97913.06
2022-10-29T05:52:20.847Z,97912.50
2022-10-29T05:53:22.395Z,97914.66
2022-10-29T05:54:24.101Z,97911.88
2022-10-29T05:55:26.439Z,97915.47
2022-10-29T05:56:27.983Z,97925.84
2022-10-29T05:57:29.655Z,97915.38
2022-10-29T05:58:31.179Z,97925.97
2022-10-29T05:59:33.836Z,97914.66
2022-10-29T06:00:37.912Z,97917.22
2022-10-29T06:01:39.556Z,97915.81
2022-10-29T06:02:44.550Z,97920.06
2022-10-29T06:03:46.694Z,97916.59
2022-10-29T06:04:48.270Z,97916.81
2022-10-29T06:05:50.744Z,97918.19
2022-10-29T06:06:52.327Z,97924.53
2022-10-29T06:07:58.492Z,97927.09
2022-10-29T06:09:03.569Z,97919.06
2022-10-29T06:10:05.670Z,97922.13
2022-10-29T06:11:07.238Z,97919.34
2022-10-29T06:12:08.814Z,97925.78
2022-10-29T06:13:15.065Z,97920.75
2022-10-29T06:14:16.600Z,97917.75
2022-10-29T06:15:19.115Z,97919.75
2022-10-29T06:16:28.343Z,97925.13
2022-10-29T06:17:32.906Z,97917.16
2022-10-29T06:18:34.465Z,97923.09
2022-10-29T06:19:36.137Z,97915.38
2022-10-29T06:20:38.927Z,97920.22
2022-10-29T06:21:40.608Z,97921.75
2022-10-29T06:22:42.162Z,97922.03
2022-10-29T06:23:43.752Z,97925.50
2022-10-29T06:24:45.304Z,97931.16
2022-10-29T06:25:46.857Z,97929.38
2022-10-29T06:26:48.421Z,97920.91
2022-10-29T06:28:01.497Z,97924.47
2022-10-29T06:29:04.317Z,97929.63
2022-10-29T06:30:06.632Z,97928.31
2022-10-29T06:31:08.146Z,97930.25
2022-10-29T06:32:09.698Z,97927.31
2022-10-29T06:33:11.231Z,97932.38
2022-10-29T06:34:13.961Z,97936.56
2022-10-29T06:35:15.616Z,97932.63
2022-10-29T06:36:17.520Z,97930.13
2022-10-29T06:37:19.035Z,97935.13
2022-10-29T06:38:20.856Z,97930.97
2022-10-29T06:39:22.411Z,97931.34
2022-10-29T06:40:24.146Z,97931.28
2022-10-29T06:41:27.248Z,97931.06
2022-10-29T06:42:28.756Z,97921.03
2022-10-29T06:43:30.442Z,97930.84
2022-10-29T06:44:31.994Z,97927.78
2022-10-29T06:45:34.977Z,97926.09
2022-10-29T06:46:36.592Z,97930.41
2022-10-29T06:47:45.516Z,97931.59
2022-10-29T06:48:47.154Z,97930.69
2022-10-29T06:49:48.726Z,97926.66
2022-10-29T06:50:51.235Z,97929.34
2022-10-29T06:51:52.771Z,97934.00
2022-10-29T06:52:59.924Z,97928.59
2022-10-29T06:54:01.599Z,97926.91
2022-10-29T06:55:03.366Z,97928.59
2022-10-29T06:56:04.975Z,97930.25
2022-10-29T06:57:06.487Z,97933.44
2022-10-29T06:58:12.823Z,97927.22
2022-10-29T06:59:14.391Z,97930.25
2022-10-29T07:00:16.096Z,97936.97
2022-10-29T07:01:17.669Z,97933.78
2022-10-29T07:02:20.675Z,97931.72
2022-10-29T07:03:23.208Z,97927.66
2022-10-29T07:04:24.776Z,97927.00
2022-10-29T07:05:27.389Z,97925.25
2022-10-29T07:06:32.483Z,97923.34
2022-10-29T07:07:34.003Z,97918.75
2022-10-29T07:08:35.554Z,97920.16
2022-10-29T07:09:37.059Z,97920.00
2022-10-29T07:10:39.049Z,97918.38
2022-10-29T07:11:40.646Z,97926.44
2022-10-29T07:12:43.395Z,97923.09
2022-10-29T07:13:45.155Z,97922.09
2022-10-29T07:14:46.681Z,97922.09
2022-10-29T07:15:48.379Z,97915.06
2022-10-29T07:16:49.942Z,97923.25
2022-10-29T07:18:02.426Z,97915.72
2022-10-29T07:19:05.684Z,97910.22
2022-10-29T07:20:09.246Z,97914.91
2022-10-29T07:21:10.939Z,97912.69
2022-10-29T07:22:12.471Z,97913.88
2022-10-29T07:23:14.121Z,97913.72
2022-10-29T07:24:17.684Z,97911.75
2022-10-29T07:25:19.805Z,97913.88
2022-10-29T07:26:21.395Z,97917.16
2022-10-29T07:27:23.110Z,97917.81
2022-10-29T07:28:25.617Z,97916.09
2022-10-29T07:29:27.171Z,97922.38
2022-10-29T07:30:28.712Z,97915.91
2022-10-29T07:31:31.384Z,97917.88
2022-10-29T07:32:32.921Z,97913.59
2022-10-29T07:33:34.558Z,97915.16
2022-10-29T07:34:36.082Z,97912.38
2022-10-29T07:35:38.009Z,97912.25
2022-10-29T07:36:39.532Z,97909.69
2022-10-29T07:37:42.781Z,97909.84
2022-10-29T07:38:44.680Z,97899.50
2022-10-29T07:39:46.299Z,97900.44
2022-10-29T07:40:50.026Z,97909.69
2022-10-29T07:41:54.052Z,97896.31
2022-10-29T07:42:58.654Z,97899.78
2022-10-29T07:44:00.501Z,97892.38
2022-10-29T07:45:02.123Z,97903.00
2022-10-29T07:46:03.822Z,97895.06
2022-10-29T07:47:05.511Z,97895.38
2022-10-29T07:48:07.945Z,97902.13
2022-10-29T07:49:09.459Z,97900.94
2022-10-29T07:50:11.492Z,97898.00
2022-10-29T07:51:13.001Z,97900.28
2022-10-29T07:52:14.686Z,97899.72
2022-10-29T07:53:16.825Z,97891.88
2022-10-29T07:54:18.355Z,97891.56
2022-10-29T07:55:20.061Z,97888.53
2022-10-29T07:56:21.727Z,97892.66
2022-10-29T07:57:23.320Z,97890.66
2022-10-29T07:58:25.679Z,97892.56
2022-10-29T07:59:27.287Z,97891.00
2022-10-29T08:00:30.429Z,97888.72
2022-10-29T08:01:32.761Z,97886.72
2022-10-29T08:02:34.453Z,97891.31
2022-10-29T08:03:36.180Z,97892.03
2022-10-29T08:04:37.696Z,97888.69
2022-10-29T08:05:42.569Z,97883.41
2022-10-29T08:06:44.653Z,97892.31
2022-10-29T08:07:46.173Z,97876.56
2022-10-29T08:08:47.739Z,97880.72
2022-10-29T08:09:49.250Z,97879.28
2022-10-29T08:10:51.047Z,97881.06
2022-10-29T08:11:52.587Z,97879.59
2022-10-29T08:12:56.986Z,97871.16
2022-10-29T08:13:59.711Z,97872.28
2022-10-29T08:15:01.232Z,97872.19
2022-10-29T08:16:02.785Z,97873.22
2022-10-29T08:17:04.315Z,97867.72
2022-10-29T08:18:16.219Z,97870.94
2022-10-29T08:19:17.722Z,97875.41
2022-10-29T08:20:20.897Z,97868.16
2022-10-29T08:21:22.533Z,97869.72
2022-10-29T08:22:24.468Z,97872.81
2022-10-29T08:23:26.133Z,97862.06
2022-10-29T08:24:27.678Z,97866.41
2022-10-29T08:25:29.688Z,97867.09
2022-10-29T08:26:31.336Z,97858.25
2022-10-29T08:27:32.974Z,97864.06
2022-10-29T08:28:35.879Z,97864.34
2022-10-29T08:29:37.559Z,97855.16
2022-10-29T08:30:39.784Z,97856.94
2022-10-29T08:31:41.301Z,97860.84
2022-10-29T08:32:46.769Z,97855.94
2022-10-29T08:33:48.829Z,97853.66
2022-10-29T08:34:50.570Z,97857.41
2022-10-29T08:35:52.747Z,97845.41
2022-10-29T08:36:54.273Z,97846.75
2022-10-29T08:37:55.912Z,97847.88
2022-10-29T08:38:57.415Z,97842.16
2022-10-29T08:39:58.922Z,97841.44
2022-10-29T08:41:11.425Z,97839.47
2022-10-29T08:42:46.207Z,97840.94
2022-10-29T08:44:21.519Z,97840.03
2022-10-29T08:45:23.054Z,97835.75
2022-10-29T08:46:54.462Z,97837.34
2022-10-29T08:48:17.263Z,97824.25
2022-10-29T08:49:23.958Z,97832.31
2022-10-29T08:50:33.255Z,97825.13
2022-10-29T08:51:38.949Z,97825.34
2022-10-29T08:52:53.039Z,97832.09
2022-10-29T08:54:25.504Z,97824.75
2022-10-29T08:55:35.139Z,97822.97
2022-10-29T08:56:39.039Z,97821.97
2022-10-29T08:57:47.722Z,97820.13
2022-10-29T08:59:09.230Z,97815.25
2022-10-29T09:00:23.048Z,97815.25
2022-10-29T09:01:24.862Z,97807.66
2022-10-29T09:02:26.531Z,97812.28
2022-10-29T09:03:31.894Z,97814.00
2022-10-29T09:04:36.452Z,97810.66
2022-10-29T09:06:16.388Z,97812.06
2022-10-29T09:07:43.315Z,97798.44
2022-10-29T09:08:53.918Z,97812.72
2022-10-29T09:10:21.597Z,97804.31
2022-10-29T09:11:37.976Z,97803.91
2022-10-29T09:12:54.084Z,97806.50
2022-10-29T09:14:10.897Z,97803.25
2022-10-29T09:15:26.963Z,97800.25
2022-10-29T09:16:51.968Z,97794.66
2022-10-29T09:18:05.456Z,97799.53
2022-10-29T09:19:36.143Z,97790.34
2022-10-29T09:20:46.956Z,97788.97
2022-10-29T09:22:03.511Z,97792.06
2022-10-29T09:23:08.032Z,97789.81
2022-10-29T09:24:19.305Z,97789.88
2022-10-29T09:25:29.852Z,97787.75
2022-10-29T09:26:41.434Z,97783.59
2022-10-29T09:28:17.457Z,97778.34
2022-10-29T09:29:24.855Z,97783.66
2022-10-29T09:30:31.261Z,97784.06
2022-10-29T09:31:51.007Z,97782.34
2022-10-29T09:32:55.556Z,97773.28
2022-10-29T09:34:02.674Z,97774.13
2022-10-29T09:35:36.387Z,97770.59
2022-10-29T09:36:38.342Z,97770.22
2022-10-29T09:38:00.409Z,97767.56
2022-10-29T09:39:09.959Z,97761.28
2022-10-29T09:40:31.119Z,97762.47
2022-10-29T09:41:34.381Z,97759.34
2022-10-29T09:42:39.628Z,97753.88
2022-10-29T09:43:51.929Z,97755.78
2022-10-29T09:44:57.663Z,97759.84
2022-10-29T09:46:25.205Z,97750.47
2022-10-29T09:47:26.675Z,97748.44
2022-10-29T09:48:49.566Z,97747.00
2022-10-29T09:49:55.416Z,97740.69
2022-10-29T09:51:12.259Z,97740.00
2022-10-29T09:52:20.901Z,97730.97
2022-10-29T09:53:22.460Z,97738.84
2022-10-29T09:54:27.758Z,97726.25
2022-10-29T09:55:39.880Z,97732.69
2022-10-29T09:56:50.455Z,97728.25
2022-10-29T09:57:57.314Z,97733.88
2022-10-29T09:59:11.883Z,97726.31
2022-10-29T10:00:26.786Z,97723.91
2022-10-29T10:01:28.490Z,97719.00
2022-10-29T10:02:37.419Z,97722.25
2022-10-29T10:03:45.725Z,97717.66
2022-10-29T10:04:49.240Z,97722.38
2022-10-29T10:05:59.778Z,97717.81
2022-10-29T10:07:16.463Z,97713.16
2022-10-29T10:08:17.996Z,97705.53
2022-10-29T10:09:19.567Z,97710.25
2022-10-29T10:10:23.715Z,97700.06
2022-10-29T10:11:44.085Z,97696.84
2022-10-29T10:12:50.389Z,97699.31
2022-10-29T10:13:58.867Z,97697.81
2022-10-29T10:15:06.377Z,97690.00
2022-10-29T10:16:08.027Z,97684.53
2022-10-29T10:17:09.597Z,97689.53
2022-10-29T10:18:23.596Z,97686.09
2022-10-29T10:19:27.984Z,97685.81
2022-10-29T10:20:29.522Z,97680.84
2022-10-29T10:21:33.342Z,97676.22
2022-10-29T10:22:47.268Z,97674.66
2022-10-29T10:23:53.594Z,97672.28
2022-10-29T10:24:55.123Z,97669.19
2022-10-29T10:26:02.175Z,97666.69
2022-10-29T10:27:26.284Z,97667.91
2022-10-29T10:28:30.344Z,97665.91
2022-10-29T10:29:31.902Z,97660.88
2022-10-29T10:30:33.471Z,97656.41
2022-10-29T10:31:35.006Z,97653.03
2022-10-29T10:32:37.015Z,97654.75
2022-10-29T10:33:49.621Z,97652.22
2022-10-29T10:34:51.319Z,97644.91
2022-10-29T10:35:54.637Z,97647.41
2022-10-29T10:37:05.290Z,97647.28
2022-10-29T10:38:09.190Z,97641.09
2022-10-29T10:39:41.998Z,97648.22
2022-10-29T10:40:43.711Z,97638.91
2022-10-29T10:41:45.798Z,97638.19
2022-10-29T10:42:47.837Z,97639.75
2022-10-29T10:43:49.668Z,97638.91
2022-10-29T10:45:00.111Z,97632.72
2022-10-29T10:46:10.531Z,97629.69
2022-10-29T10:47:12.650Z,97626.63
2022-10-29T10:48:15.524Z,97622.69
2022-10-29T10:49:20.955Z,97628.13
2022-10-29T10:50:33.618Z,97630.94
2022-10-29T10:51:37.969Z,97625.78
2022-10-29T10:52:40.474Z,97621.53
2022-10-29T10:53:42.075Z,97618.53
2022-10-29T10:54:55.639Z,97613.81
2022-10-29T10:56:00.595Z,97620.22
2022-10-29T10:57:19.494Z,97609.28
2022-10-29T10:58:30.248Z,97602.97
2022-10-29T10:59:56.135Z,97602.97
2022-10-29T11:01:11.831Z,97604.44
2022-10-29T11:02:22.506Z,97600.56
2022-10-29T11:03:46.552Z,97601.81
2022-10-29T11:04:55.776Z,97600.75
2022-10-29T11:06:08.438Z,97591.66
2022-10-29T11:07:14.662Z,97586.28
2022-10-29T11:08:43.375Z,97580.50
2022-10-29T11:09:50.235Z,97585.53
2022-10-29T11:11:02.550Z,97579.25
2022-10-29T11:12:15.659Z,97573.00
2022-10-29T11:13:22.936Z,97576.78
2022-10-29T11:14:24.423Z,97576.59
2022-10-29T11:15:40.490Z,97570.34
2022-10-29T11:16:53.834Z,97570.31
2022-10-29T11:18:03.829Z,97569.59
2022-10-29T11:19:34.174Z,97567.38
2022-10-29T11:20:44.836Z,97569.38
2022-10-29T11:21:56.019Z,97569.13
2022-10-29T11:23:13.938Z,97557.16
2022-10-29T11:24:23.894Z,97558.41
2022-10-29T11:25:39.799Z,97552.34
2022-10-29T11:26:55.866Z,97555.16
2022-10-29T11:28:03.482Z,97548.59
2022-10-29T11:29:12.838Z,97547.44
2022-10-29T11:30:19.342Z,97541.59
2022-10-29T11:31:41.557Z,97535.03
2022-10-29T11:33:10.289Z,97533.97
2022-10-29T11:34:24.937Z,97531.69
2022-10-29T11:35:51.584Z,97530.22
2022-10-29T11:37:06.742Z,97526.72
2022-10-29T11:38:44.988Z,97532.16
2022-10-29T11:39:57.016Z,97529.44
2022-10-29T11:41:17.560Z,97520.72
2022-10-29T11:42:19.081Z,97522.91
2022-10-29T11:43:21.578Z,97514.28
2022-10-29T11:44:23.477Z,97518.47
2022-10-29T11:46:02.359Z,97512.41
2022-10-29T11:47:10.010Z,97511.31
2022-10-29T11:49:51.717Z,97507.47
2022-10-29T11:50:58.314Z,97504.53
2022-10-29T11:52:09.190Z,97503.00
2022-10-29T11:53:16.791Z,97499.84
2022-10-29T11:54:55.585Z,97495.22
2022-10-29T11:56:06.269Z,97495.59
2022-10-29T11:57:24.829Z,97493.75
2022-10-29T11:59:15.651Z,97493.03
2022-10-29T12:00:22.672Z,97489.94
2022-10-29T12:01:36.315Z,97497.72
2022-10-29T12:02:57.101Z,97486.81
2022-10-29T12:05:30.423Z,97479.84
2022-10-29T12:06:39.872Z,97484.16
2022-10-29T12:07:53.624Z,97482.16
2022-10-29T12:09:16.836Z,97474.50
2022-10-29T12:10:30.533Z,97477.59
2022-10-29T12:11:50.705Z,97472.59
2022-10-29T12:13:09.353Z,97472.22
2022-10-29T12:14:16.866Z,97474.16
2022-10-29T12:15:36.191Z,97471.09
2022-10-29T12:16:56.797Z,97464.50
2022-10-29T12:18:17.529Z,97466.03
2022-10-29T12:19:24.856Z,97468.31
2022-10-29T12:20:43.407Z,97468.28
2022-10-29T12:21:56.219Z,97456.56
2022-10-29T12:23:28.806Z,97460.50
2022-10-29T12:24:30.287Z,97454.69
2022-10-29T12:25:48.190Z,97455.13
2022-10-29T12:27:09.142Z,97451.25
2022-10-29T12:28:39.011Z,97440.34
2022-10-29T12:29:51.784Z,97444.28
2022-10-29T12:31:19.913Z,97449.31
2022-10-29T12:32:46.862Z,97448.09
2022-10-29T12:34:03.529Z,97452.00
2022-10-29T12:35:16.961Z,97439.56
2022-10-29T12:36:52.055Z,97439.97
2022-10-29T12:37:59.875Z,97445.06
2022-10-29T12:39:02.682Z,97439.66
2022-10-29T12:40:14.610Z,97440.03
2022-10-29T12:41:38.877Z,97436.94
2022-10-29T12:42:40.914Z,97434.56
2022-10-29T12:43:43.174Z,97438.50
2022-10-29T12:45:10.460Z,97433.03
2022-10-29T12:46:20.449Z,97435.78
2022-10-29T12:47:54.809Z,97423.28
2022-10-29T12:48:56.492Z,97429.16
2022-10-29T12:50:20.941Z,97420.22
2022-10-29T12:51:28.107Z,97424.91
2022-10-29T12:52:43.964Z,97424.91
2022-10-29T12:54:03.322Z,97417.88
2022-10-29T12:55:09.130Z,97409.72
2022-10-29T12:56:16.337Z,97409.34
2022-10-29T12:57:18.385Z,97408.94
2022-10-29T12:58:45.645Z,97416.38
2022-10-29T12:59:47.265Z,97417.13
2022-10-29T13:00:48.863Z,97404.69
2022-10-29T13:03:58.763Z,97414.00
2022-10-29T13:05:06.901Z,97409.34
2022-10-29T13:06:42.363Z,97403.50
2022-10-29T13:07:46.894Z,97399.97
2022-10-29T13:08:57.382Z,97396.50
2022-10-29T13:10:28.624Z,97403.88
2022-10-29T13:11:44.405Z,97398.44
2022-10-29T13:13:18.725Z,97394.53
2022-10-29T13:14:38.469Z,97394.50
2022-10-29T13:15:42.562Z,97392.56
2022-10-29T13:16:49.636Z,97386.72
2022-10-29T13:17:52.782Z,97383.22